sensor_id;sensor_type;location;lat;lon;timestamp;temperature;humidity
14061;DHT22;7105;43.616;1.434;2023-04-01T00:02:07;12.10;99.90
14061;DHT22;7105;43.616;1.434;2023-04-01T00:04:33;12.10;99.90
14061;DHT22;7105;43.616;1.434;2023-04-01T00:06:59;12.10;99.90
14061;DHT22;7105;43.616;1.434;2023-04-01T00:09:25;12.00;99.90
14061;DHT22;7105;43.616;1.434;2023-04-01T00:11:51;12.00;99.90
14061;DHT22;7105;43.616;1.434;2023-04-01T00:14:17;12.00;99.90
14061;DHT22;7105;43.616;1.434;2023-04-01T00:16:43;12.00;99.90
14061;DHT22;7105;43.616;1.434;2023-04-01T00:19:09;12.00;99.90
14061;DHT22;7105;43.616;1.434;2023-04-01T00:21:35;11.90;99.90
14061;DHT22;7105;43.616;1.434;2023-04-01T00:24:02;11.90;99.90
14061;DHT22;7105;43.616;1.434;2023-04-01T00:26:27;11.90;99.90
14061;DHT22;7105;43.616;1.434;2023-04-01T00:28:53;12.00;99.90
14061;DHT22;7105;43.616;1.434;2023-04-01T00:31:19;11.90;99.90
14061;DHT22;7105;43.616;1.434;2023-04-01T00:33:45;11.90;99.90
14061;DHT22;7105;43.616;1.434;2023-04-01T00:36:13;11.90;99.90
14061;DHT22;7105;43.616;1.434;2023-04-01T00:38:40;11.80;99.90
14061;DHT22;7105;43.616;1.434;2023-04-01T00:41:07;11.80;99.90
14061;DHT22;7105;43.616;1.434;2023-04-01T00:43:33;11.80;99.90
14061;DHT22;7105;43.616;1.434;2023-04-01T00:45:59;11.70;99.90
14061;DHT22;7105;43.616;1.434;2023-04-01T00:48:33;11.70;99.90
14061;DHT22;7105;43.616;1.434;2023-04-01T00:51:06;11.70;99.90
14061;DHT22;7105;43.616;1.434;2023-04-01T00:53:38;11.70;99.90
14061;DHT22;7105;43.616;1.434;2023-04-01T00:56:17;11.70;99.90
14061;DHT22;7105;43.616;1.434;2023-04-01T00:58:50;11.80;99.90
14061;DHT22;7105;43.616;1.434;2023-04-01T01:01:17;11.80;99.90
14061;DHT22;7105;43.616;1.434;2023-04-01T01:03:42;11.70;99.90
14061;DHT22;7105;43.616;1.434;2023-04-01T01:12:01;11.80;99.90
14061;DHT22;7105;43.616;1.434;2023-04-01T01:17:14;11.80;99.90
14061;DHT22;7105;43.616;1.434;2023-04-01T01:35:52;11.70;99.90
14061;DHT22;7105;43.616;1.434;2023-04-01T01:38:23;11.70;99.90
14061;DHT22;7105;43.616;1.434;2023-04-01T01:40:51;11.60;99.90
14061;DHT22;7105;43.616;1.434;2023-04-01T01:43:25;11.60;99.90
14061;DHT22;7105;43.616;1.434;2023-04-01T01:45:55;11.50;99.90
14061;DHT22;7105;43.616;1.434;2023-04-01T01:48:24;11.50;99.90
14061;DHT22;7105;43.616;1.434;2023-04-01T01:50:50;11.50;99.90
14061;DHT22;7105;43.616;1.434;2023-04-01T01:53:16;11.50;99.90
14061;DHT22;7105;43.616;1.434;2023-04-01T01:55:44;11.50;99.90
14061;DHT22;7105;43.616;1.434;2023-04-01T02:00:59;11.50;99.90
14061;DHT22;7105;43.616;1.434;2023-04-01T02:03:29;11.40;99.90
14061;DHT22;7105;43.616;1.434;2023-04-01T02:05:58;11.40;99.90
14061;DHT22;7105;43.616;1.434;2023-04-01T02:08:34;11.50;99.90
14061;DHT22;7105;43.616;1.434;2023-04-01T02:11:06;11.60;99.90
14061;DHT22;7105;43.616;1.434;2023-04-01T02:13:45;11.60;99.90
14061;DHT22;7105;43.616;1.434;2023-04-01T02:16:16;11.60;99.90
14061;DHT22;7105;43.616;1.434;2023-04-01T02:18:48;11.50;99.90
14061;DHT22;7105;43.616;1.434;2023-04-01T02:21:17;11.60;99.90
14061;DHT22;7105;43.616;1.434;2023-04-01T02:23:45;11.70;99.90
14061;DHT22;7105;43.616;1.434;2023-04-01T02:26:13;11.70;99.90
14061;DHT22;7105;43.616;1.434;2023-04-01T02:28:40;11.70;99.90
14061;DHT22;7105;43.616;1.434;2023-04-01T02:31:09;11.60;99.90
14061;DHT22;7105;43.616;1.434;2023-04-01T02:33:37;11.50;99.90
14061;DHT22;7105;43.616;1.434;2023-04-01T02:36:04;11.50;99.90
14061;DHT22;7105;43.616;1.434;2023-04-01T02:38:30;11.50;99.90
14061;DHT22;7105;43.616;1.434;2023-04-01T02:40:58;11.50;99.90
14061;DHT22;7105;43.616;1.434;2023-04-01T02:43:24;11.50;99.90
14061;DHT22;7105;43.616;1.434;2023-04-01T02:45:50;11.40;99.90
14061;DHT22;7105;43.616;1.434;2023-04-01T02:48:16;11.40;99.90
14061;DHT22;7105;43.616;1.434;2023-04-01T02:50:41;11.30;99.90
14061;DHT22;7105;43.616;1.434;2023-04-01T02:53:07;11.30;99.90
14061;DHT22;7105;43.616;1.434;2023-04-01T02:55:33;11.30;99.90
14061;DHT22;7105;43.616;1.434;2023-04-01T02:57:59;11.20;99.90
14061;DHT22;7105;43.616;1.434;2023-04-01T03:00:25;11.20;99.90
14061;DHT22;7105;43.616;1.434;2023-04-01T03:02:52;11.20;99.90
14061;DHT22;7105;43.616;1.434;2023-04-01T03:05:18;11.10;99.90
14061;DHT22;7105;43.616;1.434;2023-04-01T03:07:43;11.10;99.90
14061;DHT22;7105;43.616;1.434;2023-04-01T03:10:10;11.10;99.90
14061;DHT22;7105;43.616;1.434;2023-04-01T03:12:35;11.10;99.90
14061;DHT22;7105;43.616;1.434;2023-04-01T03:15:01;11.10;99.90
14061;DHT22;7105;43.616;1.434;2023-04-01T03:17:27;11.10;99.90
14061;DHT22;7105;43.616;1.434;2023-04-01T03:19:53;11.10;99.90
14061;DHT22;7105;43.616;1.434;2023-04-01T03:22:18;11.10;99.90
14061;DHT22;7105;43.616;1.434;2023-04-01T03:24:49;11.00;99.90
14061;DHT22;7105;43.616;1.434;2023-04-01T03:27:15;11.00;99.90
14061;DHT22;7105;43.616;1.434;2023-04-01T03:29:41;11.00;99.90
14061;DHT22;7105;43.616;1.434;2023-04-01T03:32:07;10.90;99.90
14061;DHT22;7105;43.616;1.434;2023-04-01T03:34:32;10.90;99.90
14061;DHT22;7105;43.616;1.434;2023-04-01T03:36:58;10.90;99.90
14061;DHT22;7105;43.616;1.434;2023-04-01T03:39:24;10.90;99.90
14061;DHT22;7105;43.616;1.434;2023-04-01T03:41:50;10.90;99.90
14061;DHT22;7105;43.616;1.434;2023-04-01T03:44:16;10.90;99.90
14061;DHT22;7105;43.616;1.434;2023-04-01T03:46:42;10.90;99.90
14061;DHT22;7105;43.616;1.434;2023-04-01T03:49:11;10.90;99.90
14061;DHT22;7105;43.616;1.434;2023-04-01T03:51:43;10.90;99.90
14061;DHT22;7105;43.616;1.434;2023-04-01T03:54:10;11.00;99.90
14061;DHT22;7105;43.616;1.434;2023-04-01T03:56:36;10.90;99.90
14061;DHT22;7105;43.616;1.434;2023-04-01T03:59:03;11.00;99.90
14061;DHT22;7105;43.616;1.434;2023-04-01T04:01:30;11.00;99.90
14061;DHT22;7105;43.616;1.434;2023-04-01T04:03:56;11.00;99.90
14061;DHT22;7105;43.616;1.434;2023-04-01T04:06:23;11.10;99.90
14061;DHT22;7105;43.616;1.434;2023-04-01T04:08:49;11.10;99.90
14061;DHT22;7105;43.616;1.434;2023-04-01T04:11:15;11.10;99.90
14061;DHT22;7105;43.616;1.434;2023-04-01T04:13:42;11.10;99.90
14061;DHT22;7105;43.616;1.434;2023-04-01T04:16:09;11.10;99.90
14061;DHT22;7105;43.616;1.434;2023-04-01T04:18:35;11.10;99.90
14061;DHT22;7105;43.616;1.434;2023-04-01T04:21:02;11.10;99.90
14061;DHT22;7105;43.616;1.434;2023-04-01T04:23:28;11.10;99.90
14061;DHT22;7105;43.616;1.434;2023-04-01T04:26:00;11.10;99.90
14061;DHT22;7105;43.616;1.434;2023-04-01T04:28:27;11.10;99.90
14061;DHT22;7105;43.616;1.434;2023-04-01T04:30:54;11.10;99.90
14061;DHT22;7105;43.616;1.434;2023-04-01T04:33:21;11.20;99.90
14061;DHT22;7105;43.616;1.434;2023-04-01T04:35:47;11.20;99.90
14061;DHT22;7105;43.616;1.434;2023-04-01T04:38:12;11.20;99.90
14061;DHT22;7105;43.616;1.434;2023-04-01T04:40:39;11.10;99.90
14061;DHT22;7105;43.616;1.434;2023-04-01T04:43:05;11.20;99.90
14061;DHT22;7105;43.616;1.434;2023-04-01T04:45:31;11.10;99.90
14061;DHT22;7105;43.616;1.434;2023-04-01T04:48:00;11.10;99.90
14061;DHT22;7105;43.616;1.434;2023-04-01T04:50:26;11.10;99.90
14061;DHT22;7105;43.616;1.434;2023-04-01T04:52:52;11.20;99.90
14061;DHT22;7105;43.616;1.434;2023-04-01T04:55:17;11.20;99.90
14061;DHT22;7105;43.616;1.434;2023-04-01T04:57:43;11.20;99.90
14061;DHT22;7105;43.616;1.434;2023-04-01T05:00:10;11.20;99.90
14061;DHT22;7105;43.616;1.434;2023-04-01T05:02:36;11.20;99.90
14061;DHT22;7105;43.616;1.434;2023-04-01T05:05:02;11.20;99.90
14061;DHT22;7105;43.616;1.434;2023-04-01T05:07:28;11.20;99.90
14061;DHT22;7105;43.616;1.434;2023-04-01T05:09:53;11.10;99.90
14061;DHT22;7105;43.616;1.434;2023-04-01T05:12:19;11.10;99.90
14061;DHT22;7105;43.616;1.434;2023-04-01T05:14:45;11.10;99.90
14061;DHT22;7105;43.616;1.434;2023-04-01T05:17:12;11.10;99.90
14061;DHT22;7105;43.616;1.434;2023-04-01T05:19:38;11.10;99.90
14061;DHT22;7105;43.616;1.434;2023-04-01T05:22:04;11.00;99.90
14061;DHT22;7105;43.616;1.434;2023-04-01T05:24:31;11.00;99.90
14061;DHT22;7105;43.616;1.434;2023-04-01T05:26:57;11.00;99.90
14061;DHT22;7105;43.616;1.434;2023-04-01T05:29:24;11.00;99.90
14061;DHT22;7105;43.616;1.434;2023-04-01T05:31:49;11.00;99.90
14061;DHT22;7105;43.616;1.434;2023-04-01T05:34:15;11.00;99.90
14061;DHT22;7105;43.616;1.434;2023-04-01T05:36:42;11.00;99.90
14061;DHT22;7105;43.616;1.434;2023-04-01T05:39:08;11.00;99.90
14061;DHT22;7105;43.616;1.434;2023-04-01T05:41:37;11.00;99.90
14061;DHT22;7105;43.616;1.434;2023-04-01T05:44:03;11.00;99.90
14061;DHT22;7105;43.616;1.434;2023-04-01T05:46:29;11.10;99.90
14061;DHT22;7105;43.616;1.434;2023-04-01T05:48:55;11.20;99.90
14061;DHT22;7105;43.616;1.434;2023-04-01T05:51:20;11.20;99.90
14061;DHT22;7105;43.616;1.434;2023-04-01T05:53:46;11.20;99.90
14061;DHT22;7105;43.616;1.434;2023-04-01T05:56:12;11.20;99.90
14061;DHT22;7105;43.616;1.434;2023-04-01T05:58:38;11.20;99.90
14061;DHT22;7105;43.616;1.434;2023-04-01T06:01:07;11.30;99.90
14061;DHT22;7105;43.616;1.434;2023-04-01T06:03:33;11.30;99.90
14061;DHT22;7105;43.616;1.434;2023-04-01T06:05:59;11.30;99.90
14061;DHT22;7105;43.616;1.434;2023-04-01T06:08:27;11.30;99.90
14061;DHT22;7105;43.616;1.434;2023-04-01T06:30:39;11.40;99.90
14061;DHT22;7105;43.616;1.434;2023-04-01T06:38:33;11.50;99.90
14061;DHT22;7105;43.616;1.434;2023-04-01T06:49:16;11.60;99.90
14061;DHT22;7105;43.616;1.434;2023-04-01T06:51:59;11.70;99.90
14061;DHT22;7105;43.616;1.434;2023-04-01T06:54:40;11.80;99.90
14061;DHT22;7105;43.616;1.434;2023-04-01T06:57:30;12.10;99.90
14061;DHT22;7105;43.616;1.434;2023-04-01T07:00:00;12.20;99.90
14061;DHT22;7105;43.616;1.434;2023-04-01T07:02:34;12.20;99.90
14061;DHT22;7105;43.616;1.434;2023-04-01T07:05:04;12.30;99.90
14061;DHT22;7105;43.616;1.434;2023-04-01T07:07:43;12.20;99.90
14061;DHT22;7105;43.616;1.434;2023-04-01T07:10:28;12.20;99.90
14061;DHT22;7105;43.616;1.434;2023-04-01T07:12:58;12.10;99.90
14061;DHT22;7105;43.616;1.434;2023-04-01T07:15:36;12.10;99.90
14061;DHT22;7105;43.616;1.434;2023-04-01T07:18:14;12.20;99.90
14061;DHT22;7105;43.616;1.434;2023-04-01T07:20:41;12.20;99.90
14061;DHT22;7105;43.616;1.434;2023-04-01T07:23:22;12.20;99.90
14061;DHT22;7105;43.616;1.434;2023-04-01T07:25:52;12.30;99.90
14061;DHT22;7105;43.616;1.434;2023-04-01T07:28:19;12.40;99.90
14061;DHT22;7105;43.616;1.434;2023-04-01T07:31:11;12.30;99.90
14061;DHT22;7105;43.616;1.434;2023-04-01T07:33:57;12.40;99.90
14061;DHT22;7105;43.616;1.434;2023-04-01T07:36:45;12.40;99.90
14061;DHT22;7105;43.616;1.434;2023-04-01T07:44:45;13.10;99.90
14061;DHT22;7105;43.616;1.434;2023-04-01T07:47:29;13.30;99.90
14061;DHT22;7105;43.616;1.434;2023-04-01T07:50:17;13.80;99.90
14061;DHT22;7105;43.616;1.434;2023-04-01T07:52:59;13.50;99.90
14061;DHT22;7105;43.616;1.434;2023-04-01T08:14:36;17.90;99.90
14061;DHT22;7105;43.616;1.434;2023-04-01T08:22:43;20.00;99.90
14061;DHT22;7105;43.616;1.434;2023-04-01T08:25:18;19.80;99.90
14061;DHT22;7105;43.616;1.434;2023-04-01T08:27:48;18.30;99.90
14061;DHT22;7105;43.616;1.434;2023-04-01T08:30:51;18.50;99.90
14061;DHT22;7105;43.616;1.434;2023-04-01T08:33:30;19.00;99.90
14061;DHT22;7105;43.616;1.434;2023-04-01T08:44:09;16.30;99.90
14061;DHT22;7105;43.616;1.434;2023-04-01T08:49:50;16.30;99.90
14061;DHT22;7105;43.616;1.434;2023-04-01T08:52:35;15.60;99.90
14061;DHT22;7105;43.616;1.434;2023-04-01T08:58:27;16.50;99.90
14061;DHT22;7105;43.616;1.434;2023-04-01T09:04:08;16.40;99.90
14061;DHT22;7105;43.616;1.434;2023-04-01T09:15:42;21.60;99.90
14061;DHT22;7105;43.616;1.434;2023-04-01T09:39:03;16.20;99.90
14061;DHT22;7105;43.616;1.434;2023-04-01T09:44:53;15.50;99.90
14061;DHT22;7105;43.616;1.434;2023-04-01T09:53:41;15.40;99.90
14061;DHT22;7105;43.616;1.434;2023-04-01T10:15:25;15.90;99.90
14061;DHT22;7105;43.616;1.434;2023-04-01T10:31:45;16.80;99.90
14061;DHT22;7105;43.616;1.434;2023-04-01T10:55:32;17.40;99.90
14061;DHT22;7105;43.616;1.434;2023-04-01T11:22:59;14.10;99.90
14061;DHT22;7105;43.616;1.434;2023-04-01T11:28:11;14.30;99.90
14061;DHT22;7105;43.616;1.434;2023-04-01T11:33:44;14.70;99.90
14061;DHT22;7105;43.616;1.434;2023-04-01T11:44:25;13.90;99.90
14061;DHT22;7105;43.616;1.434;2023-04-01T12:00:55;14.50;99.90
14061;DHT22;7105;43.616;1.434;2023-04-01T12:11:51;14.60;99.90
14061;DHT22;7105;43.616;1.434;2023-04-01T12:30:25;14.50;99.90
14061;DHT22;7105;43.616;1.434;2023-04-01T12:33:15;14.50;99.90
14061;DHT22;7105;43.616;1.434;2023-04-01T12:41:40;14.20;99.90
14061;DHT22;7105;43.616;1.434;2023-04-01T12:50:19;13.60;99.90
14061;DHT22;7105;43.616;1.434;2023-04-01T12:55:46;13.40;99.90
14061;DHT22;7105;43.616;1.434;2023-04-01T13:10:07;12.90;99.90
14061;DHT22;7105;43.616;1.434;2023-04-01T13:12:51;12.00;99.90
14061;DHT22;7105;43.616;1.434;2023-04-01T13:15:41;12.00;99.90
14061;DHT22;7105;43.616;1.434;2023-04-01T13:18:31;12.10;99.90
14061;DHT22;7105;43.616;1.434;2023-04-01T13:35:04;12.00;99.90
14061;DHT22;7105;43.616;1.434;2023-04-01T13:42:53;12.20;99.90
14061;DHT22;7105;43.616;1.434;2023-04-01T13:45:22;12.20;99.90
14061;DHT22;7105;43.616;1.434;2023-04-01T13:59:03;12.30;99.90
14061;DHT22;7105;43.616;1.434;2023-04-01T14:01:40;12.40;99.90
14061;DHT22;7105;43.616;1.434;2023-04-01T14:15:03;12.70;99.90
14061;DHT22;7105;43.616;1.434;2023-04-01T14:17:50;12.60;99.90
14061;DHT22;7105;43.616;1.434;2023-04-01T14:20:39;12.40;99.90
14061;DHT22;7105;43.616;1.434;2023-04-01T14:31:27;12.00;99.90
14061;DHT22;7105;43.616;1.434;2023-04-01T14:37:04;11.90;99.90
14061;DHT22;7105;43.616;1.434;2023-04-01T14:42:37;11.80;99.90
14061;DHT22;7105;43.616;1.434;2023-04-01T14:47:58;11.80;99.90
14061;DHT22;7105;43.616;1.434;2023-04-01T14:50:27;11.90;99.90
14061;DHT22;7105;43.616;1.434;2023-04-01T14:56:01;11.50;99.90
14061;DHT22;7105;43.616;1.434;2023-04-01T14:58:49;11.30;99.90
14061;DHT22;7105;43.616;1.434;2023-04-01T15:13:35;9.60;99.90
14061;DHT22;7105;43.616;1.434;2023-04-01T15:27:19;9.50;99.90
14061;DHT22;7105;43.616;1.434;2023-04-01T15:30:04;9.60;99.90
14061;DHT22;7105;43.616;1.434;2023-04-01T15:33:17;9.90;99.90
14061;DHT22;7105;43.616;1.434;2023-04-01T15:41:00;10.20;99.90
14061;DHT22;7105;43.616;1.434;2023-04-01T15:43:44;10.10;99.90
14061;DHT22;7105;43.616;1.434;2023-04-01T15:49:05;10.10;99.90
14061;DHT22;7105;43.616;1.434;2023-04-01T15:54:12;10.80;99.90
14061;DHT22;7105;43.616;1.434;2023-04-01T15:56:59;10.70;99.90
14061;DHT22;7105;43.616;1.434;2023-04-01T16:04:59;10.60;99.90
14061;DHT22;7105;43.616;1.434;2023-04-01T16:09:59;10.60;99.90
14061;DHT22;7105;43.616;1.434;2023-04-01T16:15:44;10.60;99.90
14061;DHT22;7105;43.616;1.434;2023-04-01T16:21:04;10.90;99.90
14061;DHT22;7105;43.616;1.434;2023-04-01T16:26:20;10.70;99.90
14061;DHT22;7105;43.616;1.434;2023-04-01T16:28:55;10.80;99.90
14061;DHT22;7105;43.616;1.434;2023-04-01T16:34:21;10.90;99.90
14061;DHT22;7105;43.616;1.434;2023-04-01T16:37:06;11.00;99.90
14061;DHT22;7105;43.616;1.434;2023-04-01T16:39:37;11.10;99.90
14061;DHT22;7105;43.616;1.434;2023-04-01T16:48:09;10.80;99.90
14061;DHT22;7105;43.616;1.434;2023-04-01T16:50:54;10.70;99.90
14061;DHT22;7105;43.616;1.434;2023-04-01T16:53:47;10.60;99.90
14061;DHT22;7105;43.616;1.434;2023-04-01T16:56:20;10.70;99.90
14061;DHT22;7105;43.616;1.434;2023-04-01T17:02:15;10.80;99.90
14061;DHT22;7105;43.616;1.434;2023-04-01T17:13:16;10.70;99.90
14061;DHT22;7105;43.616;1.434;2023-04-01T17:16:06;10.60;99.90
14061;DHT22;7105;43.616;1.434;2023-04-01T17:19:17;10.60;99.90
14061;DHT22;7105;43.616;1.434;2023-04-01T17:35:27;10.70;99.90
14061;DHT22;7105;43.616;1.434;2023-04-01T17:52:44;10.40;99.90
14061;DHT22;7105;43.616;1.434;2023-04-01T17:55:40;10.20;99.90
14061;DHT22;7105;43.616;1.434;2023-04-01T17:58:20;10.10;99.90
14061;DHT22;7105;43.616;1.434;2023-04-01T18:25:38;9.30;99.90
14061;DHT22;7105;43.616;1.434;2023-04-01T18:30:32;9.20;99.90
14061;DHT22;7105;43.616;1.434;2023-04-01T18:33:29;9.20;99.90
14061;DHT22;7105;43.616;1.434;2023-04-01T18:38:49;9.20;99.90
14061;DHT22;7105;43.616;1.434;2023-04-01T18:41:28;9.20;99.90
14061;DHT22;7105;43.616;1.434;2023-04-01T18:44:19;9.30;99.90
14061;DHT22;7105;43.616;1.434;2023-04-01T18:47:43;9.20;99.90
14061;DHT22;7105;43.616;1.434;2023-04-01T18:50:27;9.20;99.90
14061;DHT22;7105;43.616;1.434;2023-04-01T18:55:59;9.10;99.90
14061;DHT22;7105;43.616;1.434;2023-04-01T18:58:45;9.20;99.90
14061;DHT22;7105;43.616;1.434;2023-04-01T19:04:03;9.30;99.90
14061;DHT22;7105;43.616;1.434;2023-04-01T19:06:52;9.20;99.90
14061;DHT22;7105;43.616;1.434;2023-04-01T19:15:20;9.10;99.90
14061;DHT22;7105;43.616;1.434;2023-04-01T19:26:16;9.00;99.90
14061;DHT22;7105;43.616;1.434;2023-04-01T19:29:03;9.00;99.90
14061;DHT22;7105;43.616;1.434;2023-04-01T19:37:28;9.00;99.90
14061;DHT22;7105;43.616;1.434;2023-04-01T19:43:07;9.00;99.90
14061;DHT22;7105;43.616;1.434;2023-04-01T19:48:53;8.90;99.90
14061;DHT22;7105;43.616;1.434;2023-04-01T19:51:34;8.90;99.90
14061;DHT22;7105;43.616;1.434;2023-04-01T20:02:03;8.90;99.90
14061;DHT22;7105;43.616;1.434;2023-04-01T20:04:51;8.90;99.90
14061;DHT22;7105;43.616;1.434;2023-04-01T20:07:37;8.90;99.90
14061;DHT22;7105;43.616;1.434;2023-04-01T20:10:20;8.80;99.90
14061;DHT22;7105;43.616;1.434;2023-04-01T20:13:13;8.80;99.90
14061;DHT22;7105;43.616;1.434;2023-04-01T20:18:05;8.90;99.90
14061;DHT22;7105;43.616;1.434;2023-04-01T20:20:37;8.90;99.90
14061;DHT22;7105;43.616;1.434;2023-04-01T20:26:10;8.80;99.90
14061;DHT22;7105;43.616;1.434;2023-04-01T20:29:02;8.60;99.90
14061;DHT22;7105;43.616;1.434;2023-04-01T20:31:43;8.50;99.90
14061;DHT22;7105;43.616;1.434;2023-04-01T20:34:44;8.50;99.90
14061;DHT22;7105;43.616;1.434;2023-04-01T20:42:37;8.50;99.90
14061;DHT22;7105;43.616;1.434;2023-04-01T20:51:06;8.50;99.90
14061;DHT22;7105;43.616;1.434;2023-04-01T21:01:44;8.50;99.90
14061;DHT22;7105;43.616;1.434;2023-04-01T21:12:50;8.40;99.90
14061;DHT22;7105;43.616;1.434;2023-04-01T21:18:38;8.50;99.90
14061;DHT22;7105;43.616;1.434;2023-04-01T21:26:48;8.50;99.90
14061;DHT22;7105;43.616;1.434;2023-04-01T21:29:47;8.50;99.90
14061;DHT22;7105;43.616;1.434;2023-04-01T21:35:00;8.50;99.90
14061;DHT22;7105;43.616;1.434;2023-04-01T21:43:17;8.40;99.90
14061;DHT22;7105;43.616;1.434;2023-04-01T21:48:52;8.30;99.90
14061;DHT22;7105;43.616;1.434;2023-04-01T22:05:10;8.30;99.90
14061;DHT22;7105;43.616;1.434;2023-04-01T22:07:50;8.30;99.90
14061;DHT22;7105;43.616;1.434;2023-04-01T22:13:23;8.20;99.90
14061;DHT22;7105;43.616;1.434;2023-04-01T22:25:08;8.30;99.90
14061;DHT22;7105;43.616;1.434;2023-04-01T22:44:05;8.20;99.90
14061;DHT22;7105;43.616;1.434;2023-04-01T22:49:33;8.20;99.90
14061;DHT22;7105;43.616;1.434;2023-04-01T22:54:54;8.10;99.90
14061;DHT22;7105;43.616;1.434;2023-04-01T22:57:44;8.10;99.90
14061;DHT22;7105;43.616;1.434;2023-04-01T23:00:32;8.00;99.90
14061;DHT22;7105;43.616;1.434;2023-04-01T23:05:55;8.00;99.90
14061;DHT22;7105;43.616;1.434;2023-04-01T23:11:32;8.00;99.90
14061;DHT22;7105;43.616;1.434;2023-04-01T23:20:46;8.00;99.90
14061;DHT22;7105;43.616;1.434;2023-04-01T23:31:03;7.90;99.90
14061;DHT22;7105;43.616;1.434;2023-04-01T23:33:30;7.90;99.90
14061;DHT22;7105;43.616;1.434;2023-04-01T23:36:00;7.90;99.90
14061;DHT22;7105;43.616;1.434;2023-04-01T23:38:38;7.90;99.90
14061;DHT22;7105;43.616;1.434;2023-04-01T23:41:05;7.80;99.90
14061;DHT22;7105;43.616;1.434;2023-04-01T23:43:37;7.80;99.90
14061;DHT22;7105;43.616;1.434;2023-04-01T23:46:05;7.80;99.90
14061;DHT22;7105;43.616;1.434;2023-04-01T23:48:41;7.80;99.90
14061;DHT22;7105;43.616;1.434;2023-04-01T23:51:28;7.80;99.90
14061;DHT22;7105;43.616;1.434;2023-04-01T23:54:15;7.80;99.90
14061;DHT22;7105;43.616;1.434;2023-04-01T23:56:49;7.80;99.90
14061;DHT22;7105;43.616;1.434;2023-04-01T23:59:24;7.80;99.90
